METAR|ÜBERSETZT|TAF
EDHK 261550Z 27013KT CAVOK 25/18 Q1016
Login|Impressum|Kontakt



Segelflug Kiel





Segelfliegen in Kiel

Der Segelflug wird im Luftsportverein Kiel von der Segelfluggruppe betrieben. Sie hat rund 70 Mitglieder, davon etwa 30 aktive Pilotinnen und Piloten, 6 Fluglehrer und 20 Flugschülerinnen und Flugschüler.

Auf diesen Seiten erfahren Sie alles über unseren Flugzeugpark, die Ausbildung in unserem Verein und das Vereinsleben allgemein.

Natürlich können sie bei uns auch mitmachen, um selbst einen Eindruck vom Fliegen zu bekommen.


Impressionen



















  Infos: Luftsportverein Kiel e.V. - Segelfluggruppe - Boelckestraße 100 24159 Kiel-Holtenau - Flugplatz So finden Sie uns Anfahrt Lageplan